San Antonio, Texas
Traffic Map
Current Weather Conditions
San Antonio, Texas
Broken Clouds
Broken Clouds
28°
Feels Like: 31°
Wind Chill: 28° Ceiling: 4900
Heat Index: 31° Visibility: 10mi
Dew Point: 22° Wind: 12mph
Humidity: 70% Direction: 120° (ESE)
Pressure: 30.02in Gusts: 0mph
Raw Report DataKSKF 222038Z AUTO 12010KT 10SM FEW029 SCT034 BKN049 BKN070 28/22 A3002 RMK AO2 $
Traffic Incident Summary
Active as of:
Severity:
Category:
InformationThere was an issue retrieving the traffic information for this location. Please try a different location or try again shortly.
Advertisements
Track Severe Weather on mobile